KHIO

Portland-Hillsboro Airport

Portland, Oregon, USA
KHIO 181130Z 1812/1912 VRB03KT P6SM FEW015 FEW150 FM181700 21005KT P6SM SCT200 FM190300 VRB03KT P6SM SCT100
Issued Valid From Valid To
Jun-18 @ 11:30 UTC
(2 hours ago)
Jun-18 @ 12:00 UTC
(an hour ago)
Jun-19 @ 12:00 UTC
(in 23 hours)
Jun-18 @ 12:00 to Jun-18 @ 17:00
KHIO 181130Z 1812/1912 VRB03KT P6SM FEW015 FEW150
Wind Visibility Clouds
Variable at 3 knots Greater than 6 miles
  • Few at 1,500' AGL
  • Few at 15,000' AGL
From Jun-18 @ 17:00 to Jun-19 @ 03:00
FM181700 21005KT P6SM SCT200
Wind Visibility Clouds
210° at 5 knots Greater than 6 miles
  • Scattered at 20,000' AGL
From Jun-19 @ 03:00 to Jun-19 @ 12:00
FM190300 VRB03KT P6SM SCT100
Wind Visibility Clouds
Variable at 3 knots Greater than 6 miles
  • Scattered at 10,000' AGL
KHIO 181130Z 1812/1912 VRB03KT P6SM FEW015 FEW150 FM181700 21005KT P6SM SCT200 FM190300 VRB03KT P6SM SCT100
Issued Jun-18 @ 11:30 UTC
(2 hours ago)
Valid From Jun-18 @ 12:00 UTC
(an hour ago)
Valid To Jun-19 @ 12:00 UTC
(in 23 hours)
Jun-18 @ 12:00 - Jun-18 @ 17:00
Wind Visibility
Variable at 3 knots Greater than 6 miles
Clouds
  • Few at 1,500' AGL
  • Few at 15,000' AGL
From Jun-18 @ 17:00 - Jun-19 @ 03:00
Wind Visibility
210° at 5 knots Greater than 6 miles
Clouds
  • Scattered at 20,000' AGL
From Jun-19 @ 03:00 - Jun-19 @ 12:00
Wind Visibility
Variable at 3 knots Greater than 6 miles
Clouds
  • Scattered at 10,000' AGL